sensor_id;sensor_type;location;lat;lon;timestamp;temperature;humidity
21770;DHT22;11046;49.558;8.674;2023-03-01T00:01:02;-0.60;78.80
21770;DHT22;11046;49.558;8.674;2023-03-01T00:04:03;-0.60;79.00
21770;DHT22;11046;49.558;8.674;2023-03-01T00:07:03;-0.60;79.10
21770;DHT22;11046;49.558;8.674;2023-03-01T00:10:04;-0.60;79.20
21770;DHT22;11046;49.558;8.674;2023-03-01T00:13:05;-0.40;79.20
21770;DHT22;11046;49.558;8.674;2023-03-01T00:16:08;-0.40;79.20
21770;DHT22;11046;49.558;8.674;2023-03-01T00:19:17;-0.30;79.40
21770;DHT22;11046;49.558;8.674;2023-03-01T00:22:18;-0.40;79.50
21770;DHT22;11046;49.558;8.674;2023-03-01T00:25:18;-0.40;79.40
21770;DHT22;11046;49.558;8.674;2023-03-01T00:28:20;-0.40;79.60
21770;DHT22;11046;49.558;8.674;2023-03-01T00:31:22;-0.40;79.80
21770;DHT22;11046;49.558;8.674;2023-03-01T00:34:24;-0.40;80.20
21770;DHT22;11046;49.558;8.674;2023-03-01T00:37:24;-0.40;80.10
21770;DHT22;11046;49.558;8.674;2023-03-01T00:40:26;-0.30;80.00
21770;DHT22;11046;49.558;8.674;2023-03-01T00:43:27;-0.30;79.90
21770;DHT22;11046;49.558;8.674;2023-03-01T00:46:27;-0.30;80.20
21770;DHT22;11046;49.558;8.674;2023-03-01T00:49:30;-0.40;80.30
21770;DHT22;11046;49.558;8.674;2023-03-01T00:52:31;-0.40;80.30
21770;DHT22;11046;49.558;8.674;2023-03-01T00:55:31;-0.30;80.30
21770;DHT22;11046;49.558;8.674;2023-03-01T00:58:32;-0.30;80.50
21770;DHT22;11046;49.558;8.674;2023-03-01T01:01:33;-0.40;80.50
21770;DHT22;11046;49.558;8.674;2023-03-01T01:04:34;-0.40;80.70
21770;DHT22;11046;49.558;8.674;2023-03-01T01:07:34;-0.30;80.60
21770;DHT22;11046;49.558;8.674;2023-03-01T01:10:35;-0.30;80.50
21770;DHT22;11046;49.558;8.674;2023-03-01T01:13:36;-0.20;81.20
21770;DHT22;11046;49.558;8.674;2023-03-01T01:16:37;-0.20;80.40
21770;DHT22;11046;49.558;8.674;2023-03-01T01:19:38;-0.20;80.30
21770;DHT22;11046;49.558;8.674;2023-03-01T01:22:38;-0.10;80.20
21770;DHT22;11046;49.558;8.674;2023-03-01T01:25:39;-0.10;81.00
21770;DHT22;11046;49.558;8.674;2023-03-01T01:28:40;-0.20;79.90
21770;DHT22;11046;49.558;8.674;2023-03-01T01:31:42;-0.30;80.10
21770;DHT22;11046;49.558;8.674;2023-03-01T01:34:42;-0.30;80.00
21770;DHT22;11046;49.558;8.674;2023-03-01T01:37:43;-0.40;80.00
21770;DHT22;11046;49.558;8.674;2023-03-01T01:40:47;-0.40;80.00
21770;DHT22;11046;49.558;8.674;2023-03-01T01:47:20;-0.50;80.50
21770;DHT22;11046;49.558;8.674;2023-03-01T01:50:22;-0.60;80.70
21770;DHT22;11046;49.558;8.674;2023-03-01T01:53:24;-0.60;81.10
21770;DHT22;11046;49.558;8.674;2023-03-01T01:56:26;-0.50;81.10
21770;DHT22;11046;49.558;8.674;2023-03-01T01:59:28;-0.60;81.00
21770;DHT22;11046;49.558;8.674;2023-03-01T02:02:31;-0.60;81.30
21770;DHT22;11046;49.558;8.674;2023-03-01T02:05:57;-0.50;81.60
21770;DHT22;11046;49.558;8.674;2023-03-01T02:09:02;-0.40;81.60
21770;DHT22;11046;49.558;8.674;2023-03-01T02:12:04;-0.40;81.30
21770;DHT22;11046;49.558;8.674;2023-03-01T02:15:05;-0.30;81.20
21770;DHT22;11046;49.558;8.674;2023-03-01T02:18:07;-0.40;81.00
21770;DHT22;11046;49.558;8.674;2023-03-01T02:21:37;-0.40;80.90
21770;DHT22;11046;49.558;8.674;2023-03-01T02:31:18;-0.60;80.70
21770;DHT22;11046;49.558;8.674;2023-03-01T02:34:38;-0.70;80.70
21770;DHT22;11046;49.558;8.674;2023-03-01T02:37:40;-0.80;81.70
21770;DHT22;11046;49.558;8.674;2023-03-01T02:40:41;-0.90;81.20
21770;DHT22;11046;49.558;8.674;2023-03-01T02:43:43;-0.90;81.50
21770;DHT22;11046;49.558;8.674;2023-03-01T02:46:52;-1.00;81.50
21770;DHT22;11046;49.558;8.674;2023-03-01T02:49:52;-1.00;81.80
21770;DHT22;11046;49.558;8.674;2023-03-01T02:53:00;-1.10;81.60
21770;DHT22;11046;49.558;8.674;2023-03-01T02:56:02;-1.10;81.80
21770;DHT22;11046;49.558;8.674;2023-03-01T02:59:03;-1.00;81.70
21770;DHT22;11046;49.558;8.674;2023-03-01T03:02:06;-1.10;81.70
21770;DHT22;11046;49.558;8.674;2023-03-01T03:05:18;-1.10;81.70
21770;DHT22;11046;49.558;8.674;2023-03-01T03:08:19;-1.10;82.00
21770;DHT22;11046;49.558;8.674;2023-03-01T03:11:25;-1.10;81.80
21770;DHT22;11046;49.558;8.674;2023-03-01T03:14:25;-1.20;81.90
21770;DHT22;11046;49.558;8.674;2023-03-01T03:17:26;-1.30;82.10
21770;DHT22;11046;49.558;8.674;2023-03-01T03:20:28;-1.30;82.10
21770;DHT22;11046;49.558;8.674;2023-03-01T03:23:29;-1.30;82.20
21770;DHT22;11046;49.558;8.674;2023-03-01T03:26:30;-1.40;82.20
21770;DHT22;11046;49.558;8.674;2023-03-01T03:29:31;-1.40;82.50
21770;DHT22;11046;49.558;8.674;2023-03-01T03:32:32;-1.40;82.60
21770;DHT22;11046;49.558;8.674;2023-03-01T03:35:37;-1.40;82.60
21770;DHT22;11046;49.558;8.674;2023-03-01T03:38:39;-1.50;82.80
21770;DHT22;11046;49.558;8.674;2023-03-01T03:41:40;-1.50;83.00
21770;DHT22;11046;49.558;8.674;2023-03-01T03:44:40;-1.50;83.10
21770;DHT22;11046;49.558;8.674;2023-03-01T03:47:41;-1.40;83.10
21770;DHT22;11046;49.558;8.674;2023-03-01T03:50:47;-1.40;83.10
21770;DHT22;11046;49.558;8.674;2023-03-01T03:53:48;-1.50;83.40
21770;DHT22;11046;49.558;8.674;2023-03-01T03:56:49;-1.50;83.40
21770;DHT22;11046;49.558;8.674;2023-03-01T03:59:49;-1.50;83.50
21770;DHT22;11046;49.558;8.674;2023-03-01T04:02:50;-1.50;83.70
21770;DHT22;11046;49.558;8.674;2023-03-01T04:05:51;-1.50;83.90
21770;DHT22;11046;49.558;8.674;2023-03-01T04:08:52;-1.60;83.80
21770;DHT22;11046;49.558;8.674;2023-03-01T04:11:58;-1.50;83.90
21770;DHT22;11046;49.558;8.674;2023-03-01T04:14:59;-1.50;83.90
21770;DHT22;11046;49.558;8.674;2023-03-01T04:18:00;-1.50;83.80
21770;DHT22;11046;49.558;8.674;2023-03-01T04:21:00;-1.50;83.90
21770;DHT22;11046;49.558;8.674;2023-03-01T04:24:01;-1.50;84.00
21770;DHT22;11046;49.558;8.674;2023-03-01T04:27:03;-1.50;84.10
21770;DHT22;11046;49.558;8.674;2023-03-01T04:30:04;-1.50;83.80
21770;DHT22;11046;49.558;8.674;2023-03-01T04:33:07;-1.50;83.90
21770;DHT22;11046;49.558;8.674;2023-03-01T04:36:09;-1.50;84.10
21770;DHT22;11046;49.558;8.674;2023-03-01T04:39:09;-1.60;84.20
21770;DHT22;11046;49.558;8.674;2023-03-01T04:42:14;-1.50;84.20
21770;DHT22;11046;49.558;8.674;2023-03-01T04:45:15;-1.60;84.90
21770;DHT22;11046;49.558;8.674;2023-03-01T04:48:15;-1.70;84.40
21770;DHT22;11046;49.558;8.674;2023-03-01T04:51:16;-1.60;84.60
21770;DHT22;11046;49.558;8.674;2023-03-01T04:54:18;-1.60;84.70
21770;DHT22;11046;49.558;8.674;2023-03-01T04:57:19;-1.60;84.70
21770;DHT22;11046;49.558;8.674;2023-03-01T05:00:20;-1.60;85.00
21770;DHT22;11046;49.558;8.674;2023-03-01T05:03:22;-1.60;85.10
21770;DHT22;11046;49.558;8.674;2023-03-01T05:06:22;-1.50;85.20
21770;DHT22;11046;49.558;8.674;2023-03-01T05:09:23;-1.50;85.10
21770;DHT22;11046;49.558;8.674;2023-03-01T05:12:24;-1.50;85.10
21770;DHT22;11046;49.558;8.674;2023-03-01T05:15:26;-1.50;85.20
21770;DHT22;11046;49.558;8.674;2023-03-01T05:18:28;-1.50;85.20
21770;DHT22;11046;49.558;8.674;2023-03-01T05:21:30;-1.50;85.30
21770;DHT22;11046;49.558;8.674;2023-03-01T05:24:32;-1.60;85.40
21770;DHT22;11046;49.558;8.674;2023-03-01T05:27:34;-1.60;85.80
21770;DHT22;11046;49.558;8.674;2023-03-01T05:30:35;-1.60;85.90
21770;DHT22;11046;49.558;8.674;2023-03-01T05:33:37;-1.50;85.80
21770;DHT22;11046;49.558;8.674;2023-03-01T05:36:38;-1.50;85.80
21770;DHT22;11046;49.558;8.674;2023-03-01T05:39:39;-1.60;85.90
21770;DHT22;11046;49.558;8.674;2023-03-01T05:42:40;-1.50;86.20
21770;DHT22;11046;49.558;8.674;2023-03-01T05:45:42;-1.50;86.20
21770;DHT22;11046;49.558;8.674;2023-03-01T05:48:43;-1.50;86.20
21770;DHT22;11046;49.558;8.674;2023-03-01T05:51:48;-1.40;86.30
21770;DHT22;11046;49.558;8.674;2023-03-01T05:54:49;-1.40;86.30
21770;DHT22;11046;49.558;8.674;2023-03-01T05:57:50;-1.50;86.10
21770;DHT22;11046;49.558;8.674;2023-03-01T06:00:51;-1.40;86.50
21770;DHT22;11046;49.558;8.674;2023-03-01T06:03:51;-1.40;86.60
21770;DHT22;11046;49.558;8.674;2023-03-01T06:06:52;-1.40;86.70
21770;DHT22;11046;49.558;8.674;2023-03-01T06:09:53;-1.40;86.70
21770;DHT22;11046;49.558;8.674;2023-03-01T06:12:54;-1.30;86.80
21770;DHT22;11046;49.558;8.674;2023-03-01T06:15:55;-1.30;86.60
21770;DHT22;11046;49.558;8.674;2023-03-01T06:18:55;-1.30;86.70
21770;DHT22;11046;49.558;8.674;2023-03-01T06:21:56;-1.20;86.90
21770;DHT22;11046;49.558;8.674;2023-03-01T06:24:56;-1.10;87.00
21770;DHT22;11046;49.558;8.674;2023-03-01T06:27:59;-1.10;87.00
21770;DHT22;11046;49.558;8.674;2023-03-01T06:31:05;-1.00;87.00
21770;DHT22;11046;49.558;8.674;2023-03-01T06:34:09;-0.90;87.00
21770;DHT22;11046;49.558;8.674;2023-03-01T06:37:14;-0.90;87.30
21770;DHT22;11046;49.558;8.674;2023-03-01T06:40:15;-0.80;87.30
21770;DHT22;11046;49.558;8.674;2023-03-01T06:43:16;-0.70;87.30
21770;DHT22;11046;49.558;8.674;2023-03-01T06:46:19;-0.70;87.30
21770;DHT22;11046;49.558;8.674;2023-03-01T06:49:25;-0.60;87.30
21770;DHT22;11046;49.558;8.674;2023-03-01T06:52:26;-0.50;87.30
21770;DHT22;11046;49.558;8.674;2023-03-01T06:55:27;-0.40;87.00
21770;DHT22;11046;49.558;8.674;2023-03-01T06:58:27;-0.30;87.00
21770;DHT22;11046;49.558;8.674;2023-03-01T07:01:28;-0.30;86.90
21770;DHT22;11046;49.558;8.674;2023-03-01T07:04:29;-0.30;87.00
21770;DHT22;11046;49.558;8.674;2023-03-01T07:07:30;-0.20;87.00
21770;DHT22;11046;49.558;8.674;2023-03-01T07:10:31;-0.10;86.90
21770;DHT22;11046;49.558;8.674;2023-03-01T07:13:32;0.00;86.90
21770;DHT22;11046;49.558;8.674;2023-03-01T07:16:32;0.00;86.90
21770;DHT22;11046;49.558;8.674;2023-03-01T07:19:33;0.10;86.90
21770;DHT22;11046;49.558;8.674;2023-03-01T07:22:33;0.20;86.90
21770;DHT22;11046;49.558;8.674;2023-03-01T07:25:34;0.20;86.70
21770;DHT22;11046;49.558;8.674;2023-03-01T07:28:35;0.20;86.60
21770;DHT22;11046;49.558;8.674;2023-03-01T07:31:39;0.30;86.70
21770;DHT22;11046;49.558;8.674;2023-03-01T07:34:40;0.40;86.60
21770;DHT22;11046;49.558;8.674;2023-03-01T07:37:40;0.60;86.50
21770;DHT22;11046;49.558;8.674;2023-03-01T07:40:41;0.70;86.40
21770;DHT22;11046;49.558;8.674;2023-03-01T07:43:41;0.90;86.40
21770;DHT22;11046;49.558;8.674;2023-03-01T07:46:42;1.10;86.10
21770;DHT22;11046;49.558;8.674;2023-03-01T07:49:43;1.30;86.10
21770;DHT22;11046;49.558;8.674;2023-03-01T07:52:47;1.50;85.80
21770;DHT22;11046;49.558;8.674;2023-03-01T07:55:48;1.70;85.80
21770;DHT22;11046;49.558;8.674;2023-03-01T07:58:49;1.90;86.20
21770;DHT22;11046;49.558;8.674;2023-03-01T08:01:49;2.30;85.70
21770;DHT22;11046;49.558;8.674;2023-03-01T08:04:50;2.50;85.40
21770;DHT22;11046;49.558;8.674;2023-03-01T08:07:51;2.60;84.60
21770;DHT22;11046;49.558;8.674;2023-03-01T08:10:51;2.70;84.80
21770;DHT22;11046;49.558;8.674;2023-03-01T08:13:52;3.10;84.90
21770;DHT22;11046;49.558;8.674;2023-03-01T08:16:52;3.20;83.60
21770;DHT22;11046;49.558;8.674;2023-03-01T08:19:53;3.30;83.60
21770;DHT22;11046;49.558;8.674;2023-03-01T08:22:53;3.40;83.40
21770;DHT22;11046;49.558;8.674;2023-03-01T08:25:54;3.70;84.10
21770;DHT22;11046;49.558;8.674;2023-03-01T08:28:54;3.90;82.80
21770;DHT22;11046;49.558;8.674;2023-03-01T08:31:55;4.20;82.30
21770;DHT22;11046;49.558;8.674;2023-03-01T08:34:55;4.40;81.80
21770;DHT22;11046;49.558;8.674;2023-03-01T08:37:56;4.60;81.50
21770;DHT22;11046;49.558;8.674;2023-03-01T08:40:59;4.60;80.80
21770;DHT22;11046;49.558;8.674;2023-03-01T08:44:00;4.70;78.10
21770;DHT22;11046;49.558;8.674;2023-03-01T08:47:01;4.60;79.50
21770;DHT22;11046;49.558;8.674;2023-03-01T08:50:03;5.00;80.20
21770;DHT22;11046;49.558;8.674;2023-03-01T08:53:04;5.30;79.80
21770;DHT22;11046;49.558;8.674;2023-03-01T08:56:04;5.50;79.10
21770;DHT22;11046;49.558;8.674;2023-03-01T08:59:05;5.80;78.40
21770;DHT22;11046;49.558;8.674;2023-03-01T09:02:15;5.90;77.60
21770;DHT22;11046;49.558;8.674;2023-03-01T09:05:16;5.90;76.40
21770;DHT22;11046;49.558;8.674;2023-03-01T09:08:17;5.70;75.00
21770;DHT22;11046;49.558;8.674;2023-03-01T09:11:20;5.80;75.30
21770;DHT22;11046;49.558;8.674;2023-03-01T09:14:21;5.80;75.10
21770;DHT22;11046;49.558;8.674;2023-03-01T09:17:21;6.10;75.90
21770;DHT22;11046;49.558;8.674;2023-03-01T09:20:22;6.30;75.50
21770;DHT22;11046;49.558;8.674;2023-03-01T09:23:22;6.70;75.80
21770;DHT22;11046;49.558;8.674;2023-03-01T09:26:23;6.90;73.20
21770;DHT22;11046;49.558;8.674;2023-03-01T09:29:24;7.10;73.10
21770;DHT22;11046;49.558;8.674;2023-03-01T09:32:26;7.30;72.40
21770;DHT22;11046;49.558;8.674;2023-03-01T09:35:26;7.50;72.70
21770;DHT22;11046;49.558;8.674;2023-03-01T09:38:28;7.40;70.80
21770;DHT22;11046;49.558;8.674;2023-03-01T09:41:49;7.50;71.50
21770;DHT22;11046;49.558;8.674;2023-03-01T09:45:00;7.80;70.70
21770;DHT22;11046;49.558;8.674;2023-03-01T09:48:02;8.00;70.00
21770;DHT22;11046;49.558;8.674;2023-03-01T09:51:09;8.00;70.90
21770;DHT22;11046;49.558;8.674;2023-03-01T09:54:13;8.20;69.70
21770;DHT22;11046;49.558;8.674;2023-03-01T09:57:16;8.20;68.80
21770;DHT22;11046;49.558;8.674;2023-03-01T10:03:44;7.80;66.80
21770;DHT22;11046;49.558;8.674;2023-03-01T10:09:57;7.80;66.10
21770;DHT22;11046;49.558;8.674;2023-03-01T10:13:10;8.00;67.60
21770;DHT22;11046;49.558;8.674;2023-03-01T10:16:18;8.40;67.10
21770;DHT22;11046;49.558;8.674;2023-03-01T10:19:27;8.60;66.60
21770;DHT22;11046;49.558;8.674;2023-03-01T10:22:31;8.70;66.60
21770;DHT22;11046;49.558;8.674;2023-03-01T10:29:05;8.50;65.80
21770;DHT22;11046;49.558;8.674;2023-03-01T10:32:10;8.50;65.50
21770;DHT22;11046;49.558;8.674;2023-03-01T10:35:34;8.50;66.00
21770;DHT22;11046;49.558;8.674;2023-03-01T10:38:54;8.70;65.70
21770;DHT22;11046;49.558;8.674;2023-03-01T10:42:04;9.00;65.50
21770;DHT22;11046;49.558;8.674;2023-03-01T10:45:30;9.00;64.80
21770;DHT22;11046;49.558;8.674;2023-03-01T10:48:31;8.80;64.10
21770;DHT22;11046;49.558;8.674;2023-03-01T10:51:32;8.90;65.20
21770;DHT22;11046;49.558;8.674;2023-03-01T10:54:33;8.90;64.90
21770;DHT22;11046;49.558;8.674;2023-03-01T10:57:36;8.80;63.90
21770;DHT22;11046;49.558;8.674;2023-03-01T11:00:53;8.70;63.60
21770;DHT22;11046;49.558;8.674;2023-03-01T11:04:22;8.90;63.80
21770;DHT22;11046;49.558;8.674;2023-03-01T11:07:23;8.90;62.50
21770;DHT22;11046;49.558;8.674;2023-03-01T11:10:30;8.80;63.10
21770;DHT22;11046;49.558;8.674;2023-03-01T11:13:31;8.80;63.00
21770;DHT22;11046;49.558;8.674;2023-03-01T11:16:35;8.90;63.10
21770;DHT22;11046;49.558;8.674;2023-03-01T11:19:36;9.00;62.30
21770;DHT22;11046;49.558;8.674;2023-03-01T11:22:36;9.00;62.60
21770;DHT22;11046;49.558;8.674;2023-03-01T11:25:54;9.20;63.20
21770;DHT22;11046;49.558;8.674;2023-03-01T11:28:58;9.30;61.80
21770;DHT22;11046;49.558;8.674;2023-03-01T11:32:04;9.10;61.40
21770;DHT22;11046;49.558;8.674;2023-03-01T11:38:39;8.90;62.00
21770;DHT22;11046;49.558;8.674;2023-03-01T11:41:40;9.00;62.60
21770;DHT22;11046;49.558;8.674;2023-03-01T11:44:43;9.20;62.30
21770;DHT22;11046;49.558;8.674;2023-03-01T11:48:04;9.00;59.80
21770;DHT22;11046;49.558;8.674;2023-03-01T11:51:16;8.70;60.80
21770;DHT22;11046;49.558;8.674;2023-03-01T11:54:30;8.80;61.20
21770;DHT22;11046;49.558;8.674;2023-03-01T11:58:07;8.60;60.40
21770;DHT22;11046;49.558;8.674;2023-03-01T12:01:37;8.70;61.20
21770;DHT22;11046;49.558;8.674;2023-03-01T12:08:38;8.80;62.00
21770;DHT22;11046;49.558;8.674;2023-03-01T12:11:51;9.00;61.00
21770;DHT22;11046;49.558;8.674;2023-03-01T12:15:01;9.00;62.10
21770;DHT22;11046;49.558;8.674;2023-03-01T12:21:47;9.30;61.00
21770;DHT22;11046;49.558;8.674;2023-03-01T12:25:16;9.40;61.10
21770;DHT22;11046;49.558;8.674;2023-03-01T12:28:30;9.40;60.90
21770;DHT22;11046;49.558;8.674;2023-03-01T12:38:08;8.90;60.50
21770;DHT22;11046;49.558;8.674;2023-03-01T12:44:57;8.90;60.30
21770;DHT22;11046;49.558;8.674;2023-03-01T12:48:17;8.90;60.10
21770;DHT22;11046;49.558;8.674;2023-03-01T12:51:24;8.90;60.60
21770;DHT22;11046;49.558;8.674;2023-03-01T12:54:29;9.10;60.90
21770;DHT22;11046;49.558;8.674;2023-03-01T13:08:24;9.30;60.30
21770;DHT22;11046;49.558;8.674;2023-03-01T13:11:31;9.30;59.30
21770;DHT22;11046;49.558;8.674;2023-03-01T13:17:42;9.00;60.20
21770;DHT22;11046;49.558;8.674;2023-03-01T13:23:47;9.20;59.60
21770;DHT22;11046;49.558;8.674;2023-03-01T13:30:39;9.20;59.00
21770;DHT22;11046;49.558;8.674;2023-03-01T13:33:48;9.30;59.10
21770;DHT22;11046;49.558;8.674;2023-03-01T13:36:49;9.50;59.50
21770;DHT22;11046;49.558;8.674;2023-03-01T13:39:50;9.70;59.20
21770;DHT22;11046;49.558;8.674;2023-03-01T13:42:53;9.90;58.90
21770;DHT22;11046;49.558;8.674;2023-03-01T13:45:54;10.10;58.50
21770;DHT22;11046;49.558;8.674;2023-03-01T13:49:01;10.20;58.20
21770;DHT22;11046;49.558;8.674;2023-03-01T13:52:42;10.30;58.00
21770;DHT22;11046;49.558;8.674;2023-03-01T13:55:50;10.20;58.00
21770;DHT22;11046;49.558;8.674;2023-03-01T13:59:02;10.10;58.30
21770;DHT22;11046;49.558;8.674;2023-03-01T14:02:12;10.00;58.10
21770;DHT22;11046;49.558;8.674;2023-03-01T14:05:13;9.90;58.80
21770;DHT22;11046;49.558;8.674;2023-03-01T14:08:24;10.00;58.10
21770;DHT22;11046;49.558;8.674;2023-03-01T14:11:56;10.00;57.60
21770;DHT22;11046;49.558;8.674;2023-03-01T14:15:15;9.80;57.00
21770;DHT22;11046;49.558;8.674;2023-03-01T14:18:30;9.50;57.50
21770;DHT22;11046;49.558;8.674;2023-03-01T14:21:39;9.40;57.40
21770;DHT22;11046;49.558;8.674;2023-03-01T14:24:47;9.20;57.50
21770;DHT22;11046;49.558;8.674;2023-03-01T14:28:00;9.10;57.30
21770;DHT22;11046;49.558;8.674;2023-03-01T14:31:02;9.10;57.50
21770;DHT22;11046;49.558;8.674;2023-03-01T14:34:19;9.10;57.40
21770;DHT22;11046;49.558;8.674;2023-03-01T14:37:32;9.10;57.20
21770;DHT22;11046;49.558;8.674;2023-03-01T14:40:36;9.10;57.10
21770;DHT22;11046;49.558;8.674;2023-03-01T14:43:46;9.00;57.20
21770;DHT22;11046;49.558;8.674;2023-03-01T14:46:52;9.00;57.20
21770;DHT22;11046;49.558;8.674;2023-03-01T14:50:04;8.90;57.20
21770;DHT22;11046;49.558;8.674;2023-03-01T14:53:06;8.90;57.60
21770;DHT22;11046;49.558;8.674;2023-03-01T14:56:15;9.00;57.20
21770;DHT22;11046;49.558;8.674;2023-03-01T14:59:25;9.00;57.30
21770;DHT22;11046;49.558;8.674;2023-03-01T15:02:27;8.90;57.20
21770;DHT22;11046;49.558;8.674;2023-03-01T15:05:33;8.70;57.10
21770;DHT22;11046;49.558;8.674;2023-03-01T15:08:35;8.70;57.20
21770;DHT22;11046;49.558;8.674;2023-03-01T15:11:40;8.60;57.30
21770;DHT22;11046;49.558;8.674;2023-03-01T15:14:44;8.50;57.20
21770;DHT22;11046;49.558;8.674;2023-03-01T15:17:57;8.40;57.40
21770;DHT22;11046;49.558;8.674;2023-03-01T15:21:14;8.40;57.50
21770;DHT22;11046;49.558;8.674;2023-03-01T15:24:28;8.40;57.20
21770;DHT22;11046;49.558;8.674;2023-03-01T15:27:32;8.40;57.40
21770;DHT22;11046;49.558;8.674;2023-03-01T15:30:35;8.40;57.50
21770;DHT22;11046;49.558;8.674;2023-03-01T15:33:38;8.50;57.50
21770;DHT22;11046;49.558;8.674;2023-03-01T15:36:43;8.50;57.30
21770;DHT22;11046;49.558;8.674;2023-03-01T15:40:29;8.40;57.30
21770;DHT22;11046;49.558;8.674;2023-03-01T15:43:45;8.30;57.30
21770;DHT22;11046;49.558;8.674;2023-03-01T15:46:53;8.30;57.20
21770;DHT22;11046;49.558;8.674;2023-03-01T15:49:55;8.30;57.40
21770;DHT22;11046;49.558;8.674;2023-03-01T15:53:00;8.30;57.40
21770;DHT22;11046;49.558;8.674;2023-03-01T15:56:21;8.30;57.30
21770;DHT22;11046;49.558;8.674;2023-03-01T15:59:22;8.30;57.30
21770;DHT22;11046;49.558;8.674;2023-03-01T16:02:25;8.20;57.40
21770;DHT22;11046;49.558;8.674;2023-03-01T16:05:28;8.30;57.40
21770;DHT22;11046;49.558;8.674;2023-03-01T16:08:33;8.20;57.30
21770;DHT22;11046;49.558;8.674;2023-03-01T16:11:37;8.20;57.30
21770;DHT22;11046;49.558;8.674;2023-03-01T16:14:39;8.20;57.30
21770;DHT22;11046;49.558;8.674;2023-03-01T16:17:40;8.20;57.40
21770;DHT22;11046;49.558;8.674;2023-03-01T16:20:41;8.10;58.00
21770;DHT22;11046;49.558;8.674;2023-03-01T16:23:45;8.10;57.50
21770;DHT22;11046;49.558;8.674;2023-03-01T16:26:47;8.00;57.50
21770;DHT22;11046;49.558;8.674;2023-03-01T16:29:50;8.00;57.50
21770;DHT22;11046;49.558;8.674;2023-03-01T16:32:54;8.00;57.50
21770;DHT22;11046;49.558;8.674;2023-03-01T16:35:55;8.00;57.40
21770;DHT22;11046;49.558;8.674;2023-03-01T16:38:58;7.90;57.50
21770;DHT22;11046;49.558;8.674;2023-03-01T16:42:05;7.90;57.50
21770;DHT22;11046;49.558;8.674;2023-03-01T16:45:09;7.80;57.40
21770;DHT22;11046;49.558;8.674;2023-03-01T16:48:16;7.80;57.40
21770;DHT22;11046;49.558;8.674;2023-03-01T16:51:23;7.80;57.40
21770;DHT22;11046;49.558;8.674;2023-03-01T16:54:24;7.70;57.50
21770;DHT22;11046;49.558;8.674;2023-03-01T16:57:27;7.60;57.50
21770;DHT22;11046;49.558;8.674;2023-03-01T17:00:33;7.50;57.60
21770;DHT22;11046;49.558;8.674;2023-03-01T17:03:38;7.40;57.90
21770;DHT22;11046;49.558;8.674;2023-03-01T17:06:39;7.40;58.00
21770;DHT22;11046;49.558;8.674;2023-03-01T17:09:40;7.30;58.00
21770;DHT22;11046;49.558;8.674;2023-03-01T17:12:41;7.20;58.30
21770;DHT22;11046;49.558;8.674;2023-03-01T17:15:44;7.10;58.60
21770;DHT22;11046;49.558;8.674;2023-03-01T17:18:48;6.90;58.90
21770;DHT22;11046;49.558;8.674;2023-03-01T17:21:55;6.70;59.20
21770;DHT22;11046;49.558;8.674;2023-03-01T17:24:55;6.50;59.60
21770;DHT22;11046;49.558;8.674;2023-03-01T17:27:56;6.40;59.90
21770;DHT22;11046;49.558;8.674;2023-03-01T17:31:07;6.30;60.20
21770;DHT22;11046;49.558;8.674;2023-03-01T17:34:11;6.10;60.70
21770;DHT22;11046;49.558;8.674;2023-03-01T17:37:13;5.90;61.10
21770;DHT22;11046;49.558;8.674;2023-03-01T17:40:14;5.70;61.60
21770;DHT22;11046;49.558;8.674;2023-03-01T17:43:18;5.60;61.90
21770;DHT22;11046;49.558;8.674;2023-03-01T17:46:21;5.50;62.30
21770;DHT22;11046;49.558;8.674;2023-03-01T17:49:24;5.40;62.60
21770;DHT22;11046;49.558;8.674;2023-03-01T17:52:24;5.40;62.70
21770;DHT22;11046;49.558;8.674;2023-03-01T17:55:25;5.30;63.60
21770;DHT22;11046;49.558;8.674;2023-03-01T17:58:26;5.20;63.00
21770;DHT22;11046;49.558;8.674;2023-03-01T18:01:31;5.00;63.20
21770;DHT22;11046;49.558;8.674;2023-03-01T18:04:33;5.00;63.40
21770;DHT22;11046;49.558;8.674;2023-03-01T18:07:34;4.90;63.70
21770;DHT22;11046;49.558;8.674;2023-03-01T18:10:35;4.80;64.00
21770;DHT22;11046;49.558;8.674;2023-03-01T18:13:39;4.70;64.50
21770;DHT22;11046;49.558;8.674;2023-03-01T18:16:40;4.60;64.70
21770;DHT22;11046;49.558;8.674;2023-03-01T18:19:41;4.60;64.90
21770;DHT22;11046;49.558;8.674;2023-03-01T18:22:42;4.50;65.10
21770;DHT22;11046;49.558;8.674;2023-03-01T18:25:42;4.40;65.10
21770;DHT22;11046;49.558;8.674;2023-03-01T18:28:43;4.30;65.10
21770;DHT22;11046;49.558;8.674;2023-03-01T18:31:46;4.30;65.40
21770;DHT22;11046;49.558;8.674;2023-03-01T18:34:47;4.20;65.90
21770;DHT22;11046;49.558;8.674;2023-03-01T18:37:47;4.10;66.20
21770;DHT22;11046;49.558;8.674;2023-03-01T18:40:51;4.00;66.40
21770;DHT22;11046;49.558;8.674;2023-03-01T18:43:52;4.00;66.60
21770;DHT22;11046;49.558;8.674;2023-03-01T18:46:54;4.00;66.50
21770;DHT22;11046;49.558;8.674;2023-03-01T18:49:57;3.90;66.90
21770;DHT22;11046;49.558;8.674;2023-03-01T18:52:58;3.80;67.00
21770;DHT22;11046;49.558;8.674;2023-03-01T18:55:59;3.80;66.90
21770;DHT22;11046;49.558;8.674;2023-03-01T18:59:00;3.60;67.10
21770;DHT22;11046;49.558;8.674;2023-03-01T19:02:03;3.50;67.50
21770;DHT22;11046;49.558;8.674;2023-03-01T19:05:04;3.40;68.00
21770;DHT22;11046;49.558;8.674;2023-03-01T19:08:04;3.30;68.20
21770;DHT22;11046;49.558;8.674;2023-03-01T19:11:05;3.30;69.00
21770;DHT22;11046;49.558;8.674;2023-03-01T19:14:06;3.20;68.70
21770;DHT22;11046;49.558;8.674;2023-03-01T19:17:07;3.20;68.90
21770;DHT22;11046;49.558;8.674;2023-03-01T19:20:10;3.10;69.00
21770;DHT22;11046;49.558;8.674;2023-03-01T19:23:11;3.00;69.30
21770;DHT22;11046;49.558;8.674;2023-03-01T19:26:13;2.90;69.30
21770;DHT22;11046;49.558;8.674;2023-03-01T19:29:14;2.80;69.80
21770;DHT22;11046;49.558;8.674;2023-03-01T19:32:14;2.80;69.90
21770;DHT22;11046;49.558;8.674;2023-03-01T19:35:15;2.70;70.00
21770;DHT22;11046;49.558;8.674;2023-03-01T19:38:15;2.70;70.40
21770;DHT22;11046;49.558;8.674;2023-03-01T19:41:17;2.70;70.70
21770;DHT22;11046;49.558;8.674;2023-03-01T19:44:17;2.70;70.80
21770;DHT22;11046;49.558;8.674;2023-03-01T19:47:18;2.60;70.70
21770;DHT22;11046;49.558;8.674;2023-03-01T19:50:18;2.50;71.00
21770;DHT22;11046;49.558;8.674;2023-03-01T19:53:19;2.50;71.30
21770;DHT22;11046;49.558;8.674;2023-03-01T19:56:21;2.40;71.40
21770;DHT22;11046;49.558;8.674;2023-03-01T19:59:21;2.40;71.60
21770;DHT22;11046;49.558;8.674;2023-03-01T20:02:26;2.30;71.70
21770;DHT22;11046;49.558;8.674;2023-03-01T20:05:27;2.20;72.10
21770;DHT22;11046;49.558;8.674;2023-03-01T20:08:29;2.20;72.30
21770;DHT22;11046;49.558;8.674;2023-03-01T20:11:31;2.20;72.70
21770;DHT22;11046;49.558;8.674;2023-03-01T20:14:32;2.20;72.80
21770;DHT22;11046;49.558;8.674;2023-03-01T20:17:32;2.10;72.80
21770;DHT22;11046;49.558;8.674;2023-03-01T20:20:33;2.10;72.90
21770;DHT22;11046;49.558;8.674;2023-03-01T20:23:34;2.10;73.20
21770;DHT22;11046;49.558;8.674;2023-03-01T20:26:35;2.00;73.40
21770;DHT22;11046;49.558;8.674;2023-03-01T20:29:36;2.00;73.30
21770;DHT22;11046;49.558;8.674;2023-03-01T20:32:36;2.00;73.40
21770;DHT22;11046;49.558;8.674;2023-03-01T20:35:41;1.90;73.50